BST,Max TemperatureF,Mean TemperatureF,Min TemperatureF,Max Dew PointF,MeanDew PointF,Min DewpointF,Max Humidity, Mean Humidity, Min Humidity, Max Sea Level PressureIn, Mean Sea Level PressureIn, Min Sea Level PressureIn, Max VisibilityMiles, Mean VisibilityMiles, Min VisibilityMiles, Max Wind SpeedMPH, Mean Wind SpeedMPH, Max Gust SpeedMPH,PrecipitationIn, CloudCover, Events, WindDirDegrees
2013-6-1,57,49,41,48,44,39,93,75,55,30.36,30.27,30.21,6,6,6,17,9,,0.00,2,,271
2013-6-2,59,50,42,46,44,39,87,72,59,30.48,30.41,30.33,6,6,6,13,6,,0.00,1,,258
2013-6-3,64,57,50,55,53,46,94,83,68,30.51,30.50,30.45,6,6,2,9,4,,0.00,4,Rain,250
2013-6-4,71,61,51,54,52,48,94,71,43,30.51,30.41,30.33,6,6,6,13,3,,0.00,1,,42
2013-6-5,66,58,50,54,51,45,88,74,52,30.30,30.20,30.15,6,6,6,10,2,,0.00,2,Rain,265
2013-6-6,68,57,46,55,52,45,94,77,56,30.27,30.22,30.18,6,6,6,10,3,,0.00,1,,258
2013-6-7,69,58,46,54,50,45,94,68,46,30.30,30.29,30.27,6,6,6,10,3,,0.00,1,,309
2013-6-8,68,57,46,55,50,45,93,72,56,30.30,30.21,30.12,6,6,6,14,4,,0.00,1,,260
2013-6-9,69,58,46,54,50,45,100,70,46,30.12,30.04,29.98,6,6,2,8,3,,0.00,1,,338
2013-6-10,62,56,51,52,50,48,88,76,68,30.01,29.94,29.89,6,6,6,12,6,,0.00,2,,119
2013-6-11,59,54,48,55,51,46,94,86,72,29.89,29.77,29.65,6,5,3,14,7,,0.00,5,Rain,117
2013-6-12,60,56,51,54,51,48,94,86,72,29.65,29.63,29.59,6,6,3,15,10,,0.00,4,Rain,229
2013-6-13,59,54,48,50,48,45,94,77,63,29.83,29.69,29.59,6,6,6,17,8,,0.00,2,,264
2013-6-14,64,55,46,52,48,43,88,74,56,29.83,29.73,29.53,6,6,6,23,11,31,0.00,3,Rain,166
2013-6-15,53,50,46,52,47,45,100,89,77,29.62,29.49,29.39,6,6,2,21,15,33,0.00,5,Rain,200
2013-6-16,60,55,50,52,50,46,100,83,72,30.01,29.83,29.62,6,6,6,13,8,,0.00,3,,250
2013-6-17,68,59,50,54,50,46,94,74,56,30.06,30.04,30.01,6,6,6,9,3,,0.00,2,,246
2013-6-18,66,62,55,55,53,50,88,76,60,30.04,29.98,29.95,6,6,6,13,4,,0.00,2,,257
2013-6-19,64,58,50,52,49,46,88,73,52,30.06,30.03,29.98,6,6,6,14,7,25,0.00,2,,243
2013-6-20,69,58,48,54,50,46,93,71,52,30.04,29.90,29.80,6,6,6,12,3,,0.00,1,,243
2013-6-21,64,60,55,55,52,46,100,78,52,29.80,29.75,29.59,6,6,2,14,6,,0.00,4,Rain,247
2013-6-22,62,56,51,54,51,50,94,86,68,29.59,29.38,29.33,6,6,4,18,11,,0.00,3,Rain-Snow,214
2013-6-23,57,54,51,52,50,46,94,84,77,30.01,29.71,29.42,6,6,5,28,17,,0.00,5,Rain,293
2013-6-24,59,54,50,46,45,45,82,71,59,30.27,30.16,30.01,6,6,6,20,16,,0.00,2,,294
2013-6-25,62,53,44,52,49,41,94,79,67,30.42,30.37,30.30,6,6,6,13,5,,0.00,2,Rain,230
2013-6-26,62,56,50,52,47,45,94,72,55,30.48,30.46,30.42,6,6,6,18,10,,0.00,2,,295
2013-6-27,59,55,51,55,52,46,100,90,82,30.45,30.29,30.18,6,6,3,14,8,,0.00,4,Rain,268
2013-6-28,57,55,53,57,52,45,100,89,72,30.18,30.06,29.98,6,5,2,24,9,,0.00,5,Rain,261
2013-6-29,59,55,51,55,51,46,94,84,72,30.18,30.15,30.12,6,6,5,16,11,,0.00,5,,239
2013-6-30,62,56,51,55,52,48,100,83,72,30.15,29.97,29.89,6,6,2,20,13,,0.00,5,Rain,224